Time;durP1;ratioP1;P1;durP2;ratioP2;P2;SDS_P1;SDS_P2;PMS_P1;PMS_P2;Temp;Humidity;BMP_temperature;BMP_pressure;BME280_temperature;BME280_humidity;BME280_pressure;Samples;Min_cycle;Max_cycle;Signal;HPM_P1;HPM_P2
2023/04/23 00:00:15;;;;;;;7.28;2.50;;;;;;;;;;10557328;28;20060;-76
2023/04/23 00:05:35;;;;;;;3.25;1.90;;;;;;;;;;10560934;28;20092;-76
2023/04/23 00:10:46;;;;;;;4.30;2.20;;;;;;;;;;10559764;27;20063;-76
2023/04/23 00:15:51;;;;;;;3.90;2.20;;;;;;;;;;10545611;28;20578;-76
2023/04/23 00:21:07;;;;;;;9.45;2.42;;;;;;;;;;10565595;27;20059;-77
2023/04/23 00:26:13;;;;;;;3.15;2.20;;;;;;;;;;10561040;28;20035;-78
2023/04/23 00:31:26;;;;;;;4.22;1.92;;;;;;;;;;10557558;28;20067;-77
2023/04/23 00:36:33;;;;;;;4.32;2.28;;;;;;;;;;10547467;28;20042;-77
2023/04/23 00:41:37;;;;;;;6.80;2.47;;;;;;;;;;10560617;28;20047;-76
2023/04/23 00:46:46;;;;;;;3.60;2.28;;;;;;;;;;10554149;28;20527;-76
2023/04/23 00:51:52;;;;;;;4.88;2.30;;;;;;;;;;10544999;28;20500;-76
2023/04/23 00:56:58;;;;;;;5.80;2.25;;;;;;;;;;10553637;27;20058;-76
2023/04/23 01:02:04;;;;;;;;;;;;;;;;;;10555508;28;20109;-75
2023/04/23 01:07:23;;;;;;;5.75;2.35;;;;;;;;;;10559827;27;19930;-75
2023/04/23 01:12:28;;;;;;;6.55;2.20;;;;;;;;;;10556939;28;20089;-77
2023/04/23 01:17:40;;;;;;;3.90;2.20;;;;;;;;;;10542429;28;20133;-77
2023/04/23 01:22:53;;;;;;;4.03;2.30;;;;;;;;;;10555459;28;20144;-77
2023/04/23 01:28:02;;;;;;;4.43;2.42;;;;;;;;;;10562465;28;20610;-76
2023/04/23 01:33:15;;;;;;;4.18;2.63;;;;;;;;;;10557064;28;20552;-75
2023/04/23 01:38:28;;;;;;;6.63;2.45;;;;;;;;;;10547085;28;20488;-77
2023/04/23 01:43:36;;;;;;;5.30;2.35;;;;;;;;;;10544331;28;20036;-76
2023/04/23 01:48:47;;;;;;;4.20;2.40;;;;;;;;;;10558191;27;20044;-76
2023/04/23 01:53:56;;;;;;;5.05;2.30;;;;;;;;;;10547780;27;20130;-75
2023/04/23 01:59:03;;;;;;;3.70;2.30;;;;;;;;;;10548107;27;20083;-74
2023/04/23 02:04:08;;;;;;;6.03;2.70;;;;;;;;;;10559905;28;20095;-75
2023/04/23 02:09:18;;;;;;;4.05;2.40;;;;;;;;;;10528906;28;20032;-74
2023/04/23 02:14:29;;;;;;;6.88;2.40;;;;;;;;;;10553394;27;20044;-75
2023/04/23 02:19:33;;;;;;;7.28;2.60;;;;;;;;;;10548875;27;20432;-74
2023/04/23 02:24:51;;;;;;;6.15;2.30;;;;;;;;;;10544633;27;20464;-75
2023/04/23 02:30:03;;;;;;;7.18;2.40;;;;;;;;;;10572467;27;20044;-75
2023/04/23 02:35:09;;;;;;;4.93;2.25;;;;;;;;;;10564180;27;20051;-77
2023/04/23 02:40:15;;;;;;;4.82;2.72;;;;;;;;;;10548703;27;20039;-74
2023/04/23 02:45:27;;;;;;;5.22;2.65;;;;;;;;;;10577116;28;20039;-77
2023/04/23 02:50:38;;;;;;;4.30;2.55;;;;;;;;;;10607262;28;20036;-74
2023/04/23 02:55:47;;;;;;;5.63;2.42;;;;;;;;;;10605216;27;20158;-75
2023/04/23 03:00:54;;;;;;;5.38;2.67;;;;;;;;;;10579279;27;20501;-75
2023/04/23 03:06:05;;;;;;;5.63;2.75;;;;;;;;;;10569871;27;20120;-75
2023/04/23 03:16:49;;;;;;;4.65;2.60;;;;;;;;;;10544460;28;20035;-76
2023/04/23 03:22:02;;;;;;;5.72;2.60;;;;;;;;;;10556212;28;20321;-76
2023/04/23 03:27:12;;;;;;;6.55;2.72;;;;;;;;;;10543440;27;20126;-75
2023/04/23 03:32:16;;;;;;;5.43;2.38;;;;;;;;;;10558916;27;20044;-76
2023/04/23 03:37:28;;;;;;;5.10;2.40;;;;;;;;;;10554759;27;20535;-76
2023/04/23 03:42:37;;;;;;;5.65;2.45;;;;;;;;;;10562262;28;20059;-74
2023/04/23 03:47:45;;;;;;;7.18;2.50;;;;;;;;;;10562092;28;20653;-77
2023/04/23 03:52:57;;;;;;;4.47;2.38;;;;;;;;;;10547294;27;20067;-77
2023/04/23 03:58:03;;;;;;;4.38;2.60;;;;;;;;;;10547598;27;20070;-76
2023/04/23 04:03:08;;;;;;;4.32;2.20;;;;;;;;;;10571640;27;20433;-75
2023/04/23 04:08:28;;;;;;;5.88;2.50;;;;;;;;;;10566631;27;20132;-76
2023/04/23 04:13:37;;;;;;;4.38;2.60;;;;;;;;;;10562795;27;20031;-76
2023/04/23 04:18:43;;;;;;;3.75;2.60;;;;;;;;;;10548339;27;20052;-76
2023/04/23 04:24:03;;;;;;;4.78;2.65;;;;;;;;;;10569979;27;20039;-75
2023/04/23 04:29:09;;;;;;;4.13;2.50;;;;;;;;;;10545320;27;20032;-76
2023/04/23 04:34:16;;;;;;;7.95;3.20;;;;;;;;;;10572360;27;20372;-75
2023/04/23 04:39:26;;;;;;;7.47;2.60;;;;;;;;;;10566302;27;20040;-76
2023/04/23 04:44:36;;;;;;;4.85;3.30;;;;;;;;;;10542004;27;20039;-76
2023/04/23 04:49:44;;;;;;;5.13;2.63;;;;;;;;;;10566555;27;20059;-75
2023/04/23 04:54:48;;;;;;;4.95;3.05;;;;;;;;;;10542458;27;20113;-75
2023/04/23 04:59:57;;;;;;;5.72;2.60;;;;;;;;;;10546554;27;20035;-75
2023/04/23 05:05:09;;;;;;;6.60;2.97;;;;;;;;;;10548665;27;20040;-76
2023/04/23 05:10:24;;;;;;;5.90;3.13;;;;;;;;;;10567398;27;20069;-76
2023/04/23 05:15:33;;;;;;;7.50;3.03;;;;;;;;;;10567360;27;20048;-74
2023/04/23 05:20:38;;;;;;;7.75;3.03;;;;;;;;;;10556994;27;20115;-75
2023/04/23 05:25:57;;;;;;;5.65;2.97;;;;;;;;;;10569121;28;20480;-77
2023/04/23 05:31:06;;;;;;;5.13;2.63;;;;;;;;;;10561856;28;20043;-78
2023/04/23 05:36:11;;;;;;;6.38;3.22;;;;;;;;;;10553447;28;20131;-77
2023/04/23 05:41:21;;;;;;;5.22;3.47;;;;;;;;;;10536231;28;20131;-75
2023/04/23 05:46:31;;;;;;;4.97;3.33;;;;;;;;;;10541106;28;20134;-75
2023/04/23 05:51:36;;;;;;;5.90;3.30;;;;;;;;;;10546754;28;20047;-75
2023/04/23 05:56:42;;;;;;;5.93;3.10;;;;;;;;;;10559591;28;20028;-74
2023/04/23 06:01:48;;;;;;;5.10;3.22;;;;;;;;;;10555406;28;20152;-74
2023/04/23 06:06:52;;;;;;;7.47;3.53;;;;;;;;;;10562726;28;20036;-75
2023/04/23 06:12:02;;;;;;;7.05;3.47;;;;;;;;;;10553236;28;20384;-75
2023/04/23 06:17:25;;;;;;;6.30;2.95;;;;;;;;;;10563878;28;20039;-75
2023/04/23 06:22:35;;;;;;;9.00;4.30;;;;;;;;;;10599289;28;20089;-73
2023/04/23 06:27:41;;;;;;;9.07;3.60;;;;;;;;;;10571534;28;20043;-76
2023/04/23 06:32:58;;;;;;;7.60;3.63;;;;;;;;;;10581170;27;20060;-75
2023/04/23 06:38:15;;;;;;;6.15;3.60;;;;;;;;;;10568528;27;20151;-75
2023/04/23 06:43:20;;;;;;;7.32;3.47;;;;;;;;;;10564032;27;20070;-76
2023/04/23 06:48:31;;;;;;;7.25;3.63;;;;;;;;;;10553059;27;20044;-77
2023/04/23 06:53:39;;;;;;;6.68;3.50;;;;;;;;;;10567542;27;20063;-75
2023/04/23 06:58:47;;;;;;;6.35;3.42;;;;;;;;;;10573419;27;20038;-74
2023/04/23 07:04:04;;;;;;;5.78;3.20;;;;;;;;;;10557104;27;20041;-75
2023/04/23 07:09:09;;;;;;;8.52;3.70;;;;;;;;;;10557306;27;20522;-76
2023/04/23 07:14:19;;;;;;;9.40;4.03;;;;;;;;;;10556728;27;20669;-75
2023/04/23 07:19:36;;;;;;;8.55;3.72;;;;;;;;;;10552342;27;20412;-76
2023/04/23 07:24:46;;;;;;;9.18;3.47;;;;;;;;;;10567127;27;20047;-75
2023/04/23 07:29:50;;;;;;;6.70;3.83;;;;;;;;;;10549650;28;20040;-74
2023/04/23 07:35:07;;;;;;;5.32;2.75;;;;;;;;;;10569405;28;20114;-75
2023/04/23 07:40:17;;;;;;;5.75;3.15;;;;;;;;;;10555362;27;20515;-75
2023/04/23 07:45:25;;;;;;;7.03;3.20;;;;;;;;;;10557236;27;20402;-75
2023/04/23 07:50:32;;;;;;;6.05;3.13;;;;;;;;;;10558735;28;20039;-77
2023/04/23 07:55:38;;;;;;;7.93;3.45;;;;;;;;;;10535854;27;20066;-75
2023/04/23 08:00:45;;;;;;;4.18;1.90;;;;;;;;;;10549470;28;22098;-76
2023/04/23 08:05:55;;;;;;;4.82;2.60;;;;;;;;;;10562617;27;20039;-76
2023/04/23 08:11:02;;;;;;;6.38;3.20;;;;;;;;;;10546879;27;20130;-75
2023/04/23 08:16:10;;;;;;;4.07;2.55;;;;;;;;;;10566985;28;20110;-76
2023/04/23 08:21:21;;;;;;;5.57;2.63;;;;;;;;;;10561965;27;20048;-77
2023/04/23 08:26:29;;;;;;;5.63;3.17;;;;;;;;;;10552984;27;20066;-77
2023/04/23 08:37:05;;;;;;;8.57;4.10;;;;;;;;;;10584792;27;20412;-76
2023/04/23 08:42:23;;;;;;;3.83;2.38;;;;;;;;;;10560438;28;20569;-76
2023/04/23 08:47:29;;;;;;;3.38;2.25;;;;;;;;;;10555748;28;20063;-77
2023/04/23 08:52:36;;;;;;;3.47;2.20;;;;;;;;;;10568272;28;20036;-77
2023/04/23 08:57:41;;;;;;;4.00;2.28;;;;;;;;;;10550583;28;20036;-76
2023/04/23 09:02:44;;;;;;;3.17;2.20;;;;;;;;;;10549884;28;20048;-78
2023/04/23 09:07:49;;;;;;;3.70;2.25;;;;;;;;;;10551321;28;20139;-78
2023/04/23 09:12:52;;;;;;;3.03;2.20;;;;;;;;;;10555666;28;20039;-86
2023/04/23 09:17:54;;;;;;;3.25;2.00;;;;;;;;;;10554525;28;20044;-88
2023/04/23 09:23:00;;;;;;;3.30;2.13;;;;;;;;;;10552464;28;20130;-86
2023/04/23 09:28:07;;;;;;;4.32;2.40;;;;;;;;;;10551174;28;20044;-86
2023/04/23 09:33:11;;;;;;;4.45;2.40;;;;;;;;;;10551388;28;20036;-86
2023/04/23 09:38:16;;;;;;;4.28;2.25;;;;;;;;;;10552690;28;20044;-85
2023/04/23 09:43:19;;;;;;;4.50;2.20;;;;;;;;;;10553997;28;20434;-87
2023/04/23 09:48:23;;;;;;;3.92;2.10;;;;;;;;;;10524315;28;20040;-85
2023/04/23 09:53:27;;;;;;;5.47;2.43;;;;;;;;;;10522133;28;20032;-87
2023/04/23 09:58:30;;;;;;;4.28;2.20;;;;;;;;;;10522245;28;20111;-87
2023/04/23 10:03:33;;;;;;;2.33;1.45;;;;;;;;;;10517533;28;20501;-86
2023/04/23 10:08:38;;;;;;;4.80;2.30;;;;;;;;;;10519461;28;20105;-87
2023/04/23 10:13:42;;;;;;;2.42;1.95;;;;;;;;;;10518691;28;20800;-87
2023/04/23 10:19:00;;;;;;;2.50;1.58;;;;;;;;;;10527551;28;20045;-87
2023/04/23 10:24:10;;;;;;;3.05;1.98;;;;;;;;;;10518389;28;20032;-86
2023/04/23 10:29:16;;;;;;;4.10;2.00;;;;;;;;;;10545999;27;20222;-86
2023/04/23 10:34:37;;;;;;;2.83;1.80;;;;;;;;;;10519375;28;20192;-86
2023/04/23 10:39:50;;;;;;;4.05;2.10;;;;;;;;;;10520802;28;20050;-86
2023/04/23 10:45:00;;;;;;;1.88;1.60;;;;;;;;;;10522258;28;20506;-87
2023/04/23 10:50:27;;;;;;;3.90;2.22;;;;;;;;;;10532384;28;20039;-91
2023/04/23 10:55:57;;;;;;;3.80;2.20;;;;;;;;;;10500891;28;20036;-87
2023/04/23 11:01:07;;;;;;;5.70;2.13;;;;;;;;;;10513267;28;20108;-87
2023/04/23 11:06:14;;;;;;;4.78;2.63;;;;;;;;;;10521545;28;20048;-87
2023/04/23 11:11:35;;;;;;;2.63;2.40;;;;;;;;;;10544119;28;20084;-86
2023/04/23 11:16:59;;;;;;;3.08;2.20;;;;;;;;;;10575652;28;20024;-88
2023/04/23 11:22:25;;;;;;;6.18;2.47;;;;;;;;;;10576421;28;20040;-89
2023/04/23 11:38:32;;;;;;;3.10;2.60;;;;;;;;;;10509745;28;19930;-89
2023/04/23 11:43:39;;;;;;;3.08;2.47;;;;;;;;;;10508965;28;20558;-89
2023/04/23 11:48:50;;;;;;;2.90;2.60;;;;;;;;;;10519731;28;20478;-90
2023/04/23 11:54:15;;;;;;;3.55;2.88;;;;;;;;;;10503084;28;20437;-89
2023/04/23 11:59:32;;;;;;;2.58;2.38;;;;;;;;;;10516416;28;20436;-89
2023/04/23 12:05:04;;;;;;;3.20;2.42;;;;;;;;;;10533410;28;20420;-90
2023/04/23 12:10:58;;;;;;;4.37;2.90;;;;;;;;;;10508131;28;20428;-89
2023/04/23 12:16:07;;;;;;;3.60;2.10;;;;;;;;;;10525316;28;20498;-89
2023/04/23 12:21:17;;;;;;;3.20;2.38;;;;;;;;;;10513239;28;20516;-88
2023/04/23 12:26:33;;;;;;;2.73;2.27;;;;;;;;;;10510947;28;20428;-89
2023/04/23 12:31:48;;;;;;;;;;;;;;;;;;10515212;28;20135;-90
2023/04/23 12:37:00;;;;;;;3.25;2.70;;;;;;;;;;10510435;28;20003;-90
2023/04/23 12:42:09;;;;;;;;;;;;;;;;;;10525647;28;20044;-90
2023/04/23 12:47:20;;;;;;;2.38;2.13;;;;;;;;;;10553803;27;19963;-89
2023/04/23 12:52:26;;;;;;;3.27;2.60;;;;;;;;;;10523740;28;20454;-88
2023/04/23 12:57:32;;;;;;;3.63;2.42;;;;;;;;;;10519796;28;20588;-88
2023/04/23 13:02:38;;;;;;;3.90;3.00;;;;;;;;;;10527921;28;20521;-88
2023/04/23 13:08:00;;;;;;;3.92;2.55;;;;;;;;;;10530716;28;20432;-89
2023/04/23 13:13:05;;;;;;;3.20;2.37;;;;;;;;;;10532457;28;20421;-88
2023/04/23 13:18:16;;;;;;;3.63;2.70;;;;;;;;;;10521606;28;20503;-87
2023/04/23 13:23:27;;;;;;;3.45;2.60;;;;;;;;;;10533789;28;20501;-90
2023/04/23 13:28:42;;;;;;;5.88;2.70;;;;;;;;;;10524854;28;20436;-89
2023/04/23 13:34:09;;;;;;;3.33;2.22;;;;;;;;;;10557852;27;20094;-90
2023/04/23 13:39:14;;;;;;;5.88;2.33;;;;;;;;;;10514794;28;20116;-90
2023/04/23 13:44:23;;;;;;;3.95;2.22;;;;;;;;;;10528301;28;20040;-91
2023/04/23 13:49:49;;;;;;;2.65;2.10;;;;;;;;;;10530387;28;20513;-90
2023/04/23 13:54:59;;;;;;;3.78;2.20;;;;;;;;;;10523544;28;20036;-88
2023/04/23 14:00:05;;;;;;;4.18;2.50;;;;;;;;;;10524448;28;20063;-88
2023/04/23 14:05:19;;;;;;;5.22;2.60;;;;;;;;;;10526340;28;20088;-90
2023/04/23 14:10:27;;;;;;;3.47;2.63;;;;;;;;;;10565790;27;20043;-89
2023/04/23 14:16:01;;;;;;;3.55;2.50;;;;;;;;;;10555504;28;20573;-89
2023/04/23 14:21:17;;;;;;;5.32;2.47;;;;;;;;;;10547705;27;20409;-90
2023/04/23 14:26:47;;;;;;;3.20;2.40;;;;;;;;;;10561521;28;20044;-88
2023/04/23 14:31:53;;;;;;;4.10;2.83;;;;;;;;;;10548006;28;20127;-90
2023/04/23 14:37:29;;;;;;;3.38;2.50;;;;;;;;;;10555265;27;20466;-88
2023/04/23 14:42:32;;;;;;;3.10;2.33;;;;;;;;;;10569190;28;20238;-89
2023/04/23 14:47:46;;;;;;;4.47;3.00;;;;;;;;;;10617614;28;20027;-87
2023/04/23 14:52:57;;;;;;;3.53;2.40;;;;;;;;;;10595378;28;20043;-90
2023/04/23 14:58:01;;;;;;;4.82;2.45;;;;;;;;;;10569393;28;20059;-90
2023/04/23 15:03:09;;;;;;;3.97;2.25;;;;;;;;;;10552821;28;20101;-88
2023/04/23 15:08:15;;;;;;;6.30;3.05;;;;;;;;;;10539206;28;20036;-87
2023/04/23 15:13:36;;;;;;;3.58;2.38;;;;;;;;;;10541285;28;20032;-91
2023/04/23 15:18:40;;;;;;;5.10;2.70;;;;;;;;;;10540350;28;20237;-92
2023/04/23 15:23:44;;;;;;;3.03;2.13;;;;;;;;;;10545646;28;20133;-92
2023/04/23 15:28:47;;;;;;;2.08;1.67;;;;;;;;;;10556289;28;20101;-91
2023/04/23 15:33:52;;;;;;;4.53;2.38;;;;;;;;;;10550573;28;20046;-89
2023/04/23 15:38:56;;;;;;;3.70;2.13;;;;;;;;;;10554435;28;20115;-90
2023/04/23 15:44:01;;;;;;;3.83;2.40;;;;;;;;;;10553808;28;20048;-89
2023/04/23 15:49:05;;;;;;;4.00;2.35;;;;;;;;;;10543907;28;20067;-90
2023/04/23 15:54:10;;;;;;;2.97;1.98;;;;;;;;;;10531106;28;20099;-87
2023/04/23 15:59:13;;;;;;;4.97;2.60;;;;;;;;;;10524380;28;20040;-86
2023/04/23 16:04:16;;;;;;;3.35;1.92;;;;;;;;;;10524045;28;20040;-86
2023/04/23 16:09:19;;;;;;;;;;;;;;;;;;10512384;28;20140;-88
2023/04/23 16:14:24;;;;;;;3.38;2.70;;;;;;;;;;10520380;28;19935;-90
2023/04/23 16:19:28;;;;;;;5.47;2.88;;;;;;;;;;10516222;28;20588;-85
2023/04/23 16:24:30;;;;;;;7.35;3.03;;;;;;;;;;10518990;28;20037;-85
2023/04/23 16:29:35;;;;;;;5.30;2.70;;;;;;;;;;10522844;28;20071;-86
2023/04/23 16:34:38;;;;;;;4.82;2.90;;;;;;;;;;10515497;28;20044;-86
2023/04/23 16:39:42;;;;;;;5.25;1.75;;;;;;;;;;10517482;28;20567;-86
2023/04/23 16:44:48;;;;;;;8.23;3.45;;;;;;;;;;10524391;28;20040;-86
2023/04/23 16:49:52;;;;;;;4.45;2.63;;;;;;;;;;10520931;28;20105;-85
2023/04/23 16:54:55;;;;;;;7.63;4.00;;;;;;;;;;10518113;28;20067;-86
2023/04/23 17:00:00;;;;;;;7.65;4.40;;;;;;;;;;10520306;28;20035;-86
2023/04/23 17:05:03;;;;;;;6.72;3.42;;;;;;;;;;10519576;28;20065;-84
2023/04/23 17:10:08;;;;;;;3.58;1.77;;;;;;;;;;10522342;28;20032;-83
2023/04/23 17:15:13;;;;;;;5.72;2.63;;;;;;;;;;10522107;28;20036;-84
2023/04/23 17:20:16;;;;;;;6.72;2.75;;;;;;;;;;10517084;28;20101;-85
2023/04/23 17:25:20;;;;;;;;;;;;;;;;;;10519054;28;20137;-84
2023/04/23 17:30:24;;;;;;;5.63;2.80;;;;;;;;;;10524160;28;19920;-84
2023/04/23 17:35:27;;;;;;;6.13;2.47;;;;;;;;;;10515463;28;20044;-84
2023/04/23 17:40:30;;;;;;;5.50;2.63;;;;;;;;;;10517386;28;20040;-83
2023/04/23 17:45:35;;;;;;;7.20;3.30;;;;;;;;;;10524912;28;20052;-84
2023/04/23 17:50:39;;;;;;;5.43;3.10;;;;;;;;;;10521419;28;20105;-83
2023/04/23 17:55:41;;;;;;;4.82;2.97;;;;;;;;;;10511796;28;20476;-84
2023/04/23 18:00:46;;;;;;;7.53;2.73;;;;;;;;;;10524264;28;20046;-83
2023/04/23 18:05:49;;;;;;;4.18;2.60;;;;;;;;;;10516620;28;20056;-83
2023/04/23 18:10:53;;;;;;;2.37;1.77;;;;;;;;;;10507792;28;20048;-90
2023/04/23 18:15:58;;;;;;;4.80;2.67;;;;;;;;;;10514101;28;20285;-86
2023/04/23 18:21:01;;;;;;;6.72;3.85;;;;;;;;;;10534570;28;20046;-88
2023/04/23 18:26:04;;;;;;;5.63;2.95;;;;;;;;;;10558008;28;20045;-85
2023/04/23 18:31:09;;;;;;;7.07;3.60;;;;;;;;;;10543977;27;20613;-85
2023/04/23 18:36:19;;;;;;;6.45;3.63;;;;;;;;;;10504873;28;20401;-85
2023/04/23 18:41:22;;;;;;;8.68;4.32;;;;;;;;;;10510969;28;20041;-85
2023/04/23 18:46:26;;;;;;;12.57;5.07;;;;;;;;;;10507908;28;20036;-85
2023/04/23 18:51:36;;;;;;;9.70;3.97;;;;;;;;;;10495754;28;20094;-85
2023/04/23 18:56:40;;;;;;;5.25;2.60;;;;;;;;;;10498622;28;20040;-86
2023/04/23 19:01:45;;;;;;;1.30;1.10;;;;;;;;;;10509165;28;20136;-86
2023/04/23 19:06:48;;;;;;;1.35;0.88;;;;;;;;;;10511041;28;20579;-85
2023/04/23 19:11:50;;;;;;;1.92;0.98;;;;;;;;;;10507160;28;20056;-85
2023/04/23 19:16:55;;;;;;;4.38;1.55;;;;;;;;;;10500064;28;20063;-85
2023/04/23 19:21:59;;;;;;;2.35;1.50;;;;;;;;;;10510134;28;20123;-85
2023/04/23 19:27:04;;;;;;;2.80;1.48;;;;;;;;;;10520897;28;20040;-89
2023/04/23 19:32:09;;;;;;;2.88;1.65;;;;;;;;;;10519703;28;20533;-88
2023/04/23 19:37:13;;;;;;;3.28;1.38;;;;;;;;;;10513151;28;20039;-86
2023/04/23 19:42:16;;;;;;;2.65;1.13;;;;;;;;;;10512801;28;20071;-87
2023/04/23 19:47:23;;;;;;;8.10;1.77;;;;;;;;;;10537312;28;20060;-90
2023/04/23 19:52:27;;;;;;;8.07;1.70;;;;;;;;;;10510739;28;20055;-77
2023/04/23 19:57:29;;;;;;;5.63;1.52;;;;;;;;;;10512676;28;20037;-77
2023/04/23 20:02:34;;;;;;;5.82;2.28;;;;;;;;;;10511673;28;20438;-77
2023/04/23 20:07:47;;;;;;;2.72;1.33;;;;;;;;;;10503449;28;20119;-77
2023/04/23 20:12:51;;;;;;;1.13;0.80;;;;;;;;;;10508263;28;20047;-78
2023/04/23 20:17:55;;;;;;;2.90;1.60;;;;;;;;;;10510809;28;20288;-78
2023/04/23 20:22:58;;;;;;;1.13;1.00;;;;;;;;;;10506004;28;20357;-77
2023/04/23 20:28:00;;;;;;;4.43;1.60;;;;;;;;;;10508780;28;20059;-78
2023/04/23 20:33:05;;;;;;;3.83;1.67;;;;;;;;;;10513330;28;20036;-78
2023/04/23 20:38:11;;;;;;;3.03;1.33;;;;;;;;;;10512028;28;20425;-77
2023/04/23 20:43:14;;;;;;;3.80;2.00;;;;;;;;;;10516468;28;20088;-76
2023/04/23 20:48:18;;;;;;;2.90;1.30;;;;;;;;;;10503945;28;20059;-77
2023/04/23 20:53:24;;;;;;;5.70;1.75;;;;;;;;;;10499579;28;20516;-80
2023/04/23 20:58:28;;;;;;;4.05;2.05;;;;;;;;;;10506456;28;20041;-76
2023/04/23 21:03:31;;;;;;;;;;;;;;;;;;10517496;28;20467;-77
2023/04/23 21:08:37;;;;;;;6.80;2.00;;;;;;;;;;10506099;28;20362;-76
2023/04/23 21:13:40;;;;;;;4.75;1.90;;;;;;;;;;10509496;28;20500;-77
2023/04/23 21:18:43;;;;;;;2.03;1.33;;;;;;;;;;10500826;28;20049;-78
2023/04/23 21:23:49;;;;;;;6.85;2.38;;;;;;;;;;10505814;28;20055;-78
2023/04/23 21:28:51;;;;;;;4.40;1.67;;;;;;;;;;10507662;28;20040;-76
2023/04/23 21:33:54;;;;;;;7.68;1.92;;;;;;;;;;10502782;28;20075;-78
2023/04/23 21:39:00;;;;;;;3.30;1.85;;;;;;;;;;10500325;28;20115;-77
2023/04/23 21:44:03;;;;;;;1.85;1.33;;;;;;;;;;10499417;28;20036;-78
2023/04/23 21:49:05;;;;;;;4.45;1.73;;;;;;;;;;10507192;28;20032;-78
2023/04/23 21:54:20;;;;;;;3.13;1.38;;;;;;;;;;10502088;28;20044;-77
2023/04/23 21:59:23;;;;;;;2.83;1.45;;;;;;;;;;10501716;28;20036;-79
2023/04/23 22:04:27;;;;;;;2.45;0.90;;;;;;;;;;10498800;28;20044;-79
2023/04/23 22:09:32;;;;;;;4.07;2.10;;;;;;;;;;10500710;28;20044;-79
2023/04/23 22:14:34;;;;;;;;;;;;;;;;;;10507334;28;20055;-77
2023/04/23 22:19:37;;;;;;;3.40;1.52;;;;;;;;;;10504856;28;19920;-78
2023/04/23 22:24:41;;;;;;;2.55;1.58;;;;;;;;;;10491154;28;20412;-78
2023/04/23 22:29:44;;;;;;;6.10;2.40;;;;;;;;;;10505391;28;20040;-77
2023/04/23 22:34:47;;;;;;;3.42;1.67;;;;;;;;;;10499906;28;20544;-78
2023/04/23 22:39:52;;;;;;;3.55;1.05;;;;;;;;;;10496762;28;20037;-77
2023/04/23 22:45:02;;;;;;;5.63;2.45;;;;;;;;;;10501378;28;20062;-80
2023/04/23 22:50:04;;;;;;;5.35;2.05;;;;;;;;;;10506501;28;20041;-76
2023/04/23 22:55:09;;;;;;;4.65;2.25;;;;;;;;;;10513589;28;20073;-77
2023/04/23 23:00:13;;;;;;;3.00;1.52;;;;;;;;;;10503423;28;20076;-77
2023/04/23 23:05:26;;;;;;;0.90;0.70;;;;;;;;;;10506426;28;20108;-77
2023/04/23 23:10:30;;;;;;;3.25;1.60;;;;;;;;;;10510222;28;20040;-77
2023/04/23 23:15:34;;;;;;;2.13;1.08;;;;;;;;;;10505420;28;21331;-76
2023/04/23 23:20:38;;;;;;;1.73;1.15;;;;;;;;;;10511277;28;20211;-78
2023/04/23 23:25:41;;;;;;;1.85;1.30;;;;;;;;;;10497781;28;20055;-76
2023/04/23 23:30:45;;;;;;;1.67;1.20;;;;;;;;;;10514692;28;20044;-76
2023/04/23 23:35:48;;;;;;;;;;;;;;;;;;10516360;28;20039;-77
2023/04/23 23:40:52;;;;;;;0.43;0.30;;;;;;;;;;10511792;28;19921;-76
2023/04/23 23:45:55;;;;;;;2.30;1.08;;;;;;;;;;10506017;28;20194;-76
2023/04/23 23:51:00;;;;;;;5.90;1.53;;;;;;;;;;10507126;28;20040;-76
2023/04/23 23:56:04;;;;;;;4.63;1.40;;;;;;;;;;10511440;28;20063;-77
